Menomonie, WI (54751)

8:56 AM CDT on April 01, 2015 (GMT -0500)
Menomonie | | Change Station
CLOSE
Current Station
Airport
Location: Menomonie,
Elevation: 896 ft
Nearby Weather Stations

Elev 896 ft 44.89 °N, 91.87 °W | Updated 21 minutes ago

Clear
Clear
44 °F
Feels Like 37 °F
N
14
Wind Variable Wind from ESE

Today
High -- | Low -- °F
--% Chance of Precip.
Yesterday
High -- | Low -- °F
Precip. -- in
6:48 AM 7:35 PM
Waxing Gibbous, 92% visible
Pressure 29.87 in
Visibility 10.0 miles
Clouds Clear
Windchill 37 °F
Dew Point 32 °F
Humidity 63%
Rainfall 0.00 in
Snow Depth Not available.
UV 1 out of 12
Pollen 5.70 out of 12
Air Quality Not available.
Flu Activity Not available.
METAR KLUM 011335Z AUTO 11012KT 10SM CLR 07/00 A2987 RMK AO2 T00660001

More Conditions Fewer Conditions

Pressure 29.87 in
Visibility 10.0 miles
Clouds Clear
Windchill 37 °F
Dew Point 32 °F
Humidity 63%
Rainfall 0.00 in
Snow Depth Not available.
UV 1 out of 12
Pollen 5.70 out of 12
Air Quality Not available.
Flu Activity Not available.
METAR KLUM 011335Z AUTO 11012KT 10SM CLR 07/00 A2987 RMK AO2 T00660001

More Conditions Fewer Conditions

10-Day Weather Forecast

Almanac

Astronomy

Apr. 01, 2015 Rise Set
Actual Time
Civil Twilight
Nautical Twilight
Astronomical Twilight
Moon
Length of Visible Light
Length of Day
Tomorrow will be .
, % of the Moon is Illuminated

Today's Extremes

State Highs State Lows

Community

WunderPhotos

Upload Photos

1,809,957 photos uploaded!

WunderBlogs® & News

Nearby

Air Quality

  Air Quality AQ Index Pollutant
Not available.

Snow Depth

Station Depth Elevation

Earthquake Activity

City Distance Mag. Time & Date
Minimum magnitude displayed is 2.5.

Coastal Water Temperatures

Place Temperature

Stations

Nearby Weather Stations

Station Location Temp. Windchill Dew Point Humidity Wind Precip. Elev Updated Type